createdAt,value
2017-06-18T00:06:05.923Z,34.23
2017-06-18T00:14:57.028Z,33.50
2017-06-18T00:20:43.049Z,32.40
2017-06-18T00:23:17.916Z,35.73
2017-06-18T00:32:02.501Z,30.90
2017-06-18T00:34:41.915Z,32.70
2017-06-18T00:37:26.991Z,33.23
2017-06-18T00:40:14.541Z,34.00
2017-06-18T00:45:55.860Z,29.17
2017-06-18T00:51:34.023Z,30.60
2017-06-18T00:54:25.962Z,31.47
2017-06-18T01:00:17.579Z,32.70
2017-06-18T01:11:47.959Z,34.43
2017-06-18T01:14:26.897Z,33.17
2017-06-18T01:20:02.792Z,34.30
2017-06-18T01:22:39.522Z,37.83
2017-06-18T01:25:16.388Z,33.27
2017-06-18T01:30:53.605Z,31.40
2017-06-18T01:33:28.319Z,33.50
2017-06-18T01:39:00.963Z,28.83
2017-06-18T01:41:52.151Z,29.10
2017-06-18T01:47:32.860Z,28.20
2017-06-18T01:50:24.268Z,30.23
2017-06-18T01:55:57.019Z,31.30
2017-06-18T02:01:50.844Z,30.13
2017-06-18T02:04:34.376Z,30.30
2017-06-18T02:13:10.358Z,33.17
2017-06-18T02:15:48.533Z,33.77
2017-06-18T02:18:23.040Z,34.57
2017-06-18T02:20:57.068Z,30.27
2017-06-18T02:23:32.000Z,30.40
2017-06-18T02:26:10.011Z,31.80
2017-06-18T02:28:44.128Z,32.93
2017-06-18T02:31:17.355Z,32.40
2017-06-18T02:33:58.428Z,34.10
2017-06-18T02:36:33.332Z,30.50
2017-06-18T02:39:15.446Z,32.67
2017-06-18T02:44:51.195Z,29.83
2017-06-18T02:47:32.876Z,33.50
2017-06-18T02:50:11.661Z,32.27
2017-06-18T02:52:57.228Z,33.33
2017-06-18T02:58:31.033Z,34.63
2017-06-18T03:01:06.976Z,32.63
2017-06-18T03:03:45.283Z,34.80
2017-06-18T03:06:17.627Z,33.90
2017-06-18T03:12:05.943Z,31.83
2017-06-18T03:14:42.557Z,31.20
2017-06-18T03:17:16.928Z,33.00
2017-06-18T03:20:02.521Z,31.00
2017-06-18T03:22:43.872Z,27.77
2017-06-18T03:25:22.121Z,30.30
2017-06-18T03:31:04.260Z,27.13
2017-06-18T03:33:53.452Z,30.70
2017-06-18T03:36:42.157Z,34.10
2017-06-18T03:39:23.167Z,33.57
2017-06-18T03:41:57.242Z,33.23
2017-06-18T03:47:31.108Z,31.70
2017-06-18T03:50:12.373Z,29.47
2017-06-18T03:52:44.737Z,31.70
2017-06-18T04:01:18.479Z,27.70
2017-06-18T04:03:59.767Z,30.90
2017-06-18T04:06:31.290Z,24.77
2017-06-18T04:09:05.765Z,23.43
2017-06-18T04:11:58.014Z,22.47
2017-06-18T04:14:52.009Z,25.60
2017-06-18T04:23:20.586Z,24.97
2017-06-18T04:25:57.091Z,23.70
2017-06-18T04:28:38.472Z,23.40
2017-06-18T04:31:13.764Z,22.53
2017-06-18T04:33:49.645Z,22.20
2017-06-18T04:36:28.738Z,22.33
2017-06-18T04:42:00.643Z,19.07
2017-06-18T04:44:32.609Z,19.50
2017-06-18T04:47:13.851Z,19.30
2017-06-18T04:49:42.224Z,20.10
2017-06-18T04:52:16.580Z,17.70
2017-06-18T04:55:05.687Z,18.57
2017-06-18T04:57:46.596Z,19.50
2017-06-18T05:00:15.017Z,16.23
2017-06-18T05:02:58.018Z,16.43
2017-06-18T05:05:28.192Z,14.90
2017-06-18T05:08:04.724Z,17.90
2017-06-18T05:10:33.112Z,17.83
2017-06-18T05:13:01.511Z,17.60
2017-06-18T05:15:29.913Z,17.97
2017-06-18T05:17:58.360Z,18.37
2017-06-18T05:23:38.735Z,16.07
2017-06-18T05:26:07.040Z,17.37
2017-06-18T05:28:35.432Z,16.37
2017-06-18T05:34:16.067Z,14.40
2017-06-18T05:39:41.489Z,13.47
2017-06-18T05:48:12.529Z,12.57
2017-06-18T05:50:54.061Z,15.23
2017-06-18T05:56:23.070Z,12.80
2017-06-18T05:59:05.960Z,14.30
2017-06-18T06:01:34.364Z,12.67
2017-06-18T06:04:12.756Z,14.27
2017-06-18T06:06:51.350Z,9.90
2017-06-18T06:09:39.317Z,10.50
2017-06-18T06:12:13.626Z,11.50
2017-06-18T06:14:47.090Z,10.77
2017-06-18T06:20:34.911Z,7.97
2017-06-18T06:23:11.233Z,7.20
2017-06-18T06:25:48.365Z,8.07
2017-06-18T06:28:16.789Z,7.47
2017-06-18T06:34:09.324Z,7.40
2017-06-18T06:39:52.475Z,6.70
2017-06-18T06:42:20.825Z,5.33
2017-06-18T06:44:49.535Z,5.87
2017-06-18T06:47:23.904Z,4.57
2017-06-18T06:49:52.438Z,4.40
2017-06-18T06:52:26.961Z,4.33
2017-06-18T06:58:00.673Z,3.07
2017-06-18T07:00:46.121Z,1.47
2017-06-18T07:03:24.879Z,1.70
2017-06-18T07:08:54.184Z,1.30
2017-06-18T07:11:22.606Z,1.40
2017-06-18T07:13:52.001Z,1.33
2017-06-18T07:16:21.457Z,2.03
2017-06-18T07:18:55.751Z,1.40
2017-06-18T07:30:41.153Z,1.40
2017-06-18T07:39:16.464Z,0.90
2017-06-18T07:44:58.239Z,1.00
2017-06-18T07:47:48.353Z,1.00
2017-06-18T07:53:16.738Z,1.10
2017-06-18T07:56:01.657Z,0.80
2017-06-18T08:04:46.237Z,1.10
2017-06-18T08:07:31.004Z,1.00
2017-06-18T08:13:06.892Z,1.10
2017-06-18T08:15:35.249Z,0.80
2017-06-18T08:21:27.822Z,1.20
2017-06-18T08:24:15.325Z,1.27
2017-06-18T08:26:53.785Z,1.17
2017-06-18T08:29:35.926Z,1.10
2017-06-18T08:38:01.474Z,1.10
2017-06-18T08:40:29.896Z,1.03
2017-06-18T08:42:58.254Z,1.23
2017-06-18T08:48:34.976Z,1.13
2017-06-18T08:54:00.173Z,0.90
2017-06-18T08:56:28.536Z,0.93
2017-06-18T09:02:07.072Z,0.80
2017-06-18T09:04:50.724Z,1.07
2017-06-18T09:07:19.076Z,0.97
2017-06-18T09:09:50.972Z,0.90
2017-06-18T09:12:25.473Z,1.27
2017-06-18T09:17:51.391Z,1.10
2017-06-18T09:20:25.641Z,1.00
2017-06-18T09:23:10.972Z,1.30
2017-06-18T09:25:54.409Z,1.30
2017-06-18T09:28:22.841Z,1.10
2017-06-18T09:30:51.232Z,1.43
2017-06-18T09:36:34.265Z,1.67
2017-06-18T09:39:06.397Z,1.30
2017-06-18T09:41:49.616Z,1.30
2017-06-18T09:44:18.001Z,1.30
2017-06-18T09:46:46.378Z,0.90
2017-06-18T09:49:14.844Z,1.30
2017-06-18T09:51:49.629Z,1.10
2017-06-18T09:54:19.804Z,1.10
2017-06-18T09:56:51.563Z,1.10
2017-06-18T09:59:20.045Z,1.00
2017-06-18T10:01:48.453Z,1.00
2017-06-18T10:04:26.889Z,1.57
2017-06-18T10:06:56.592Z,1.20
2017-06-18T10:09:31.348Z,1.40
2017-06-18T10:12:19.418Z,1.27
2017-06-18T10:15:06.952Z,1.00
2017-06-18T10:20:34.874Z,1.27
2017-06-18T10:57:13.610Z,1.33
2017-06-18T10:59:42.277Z,1.77
2017-06-18T11:02:17.791Z,1.63
2017-06-18T11:04:50.000Z,2.20
2017-06-18T11:07:31.133Z,1.70
2017-06-18T11:10:16.475Z,1.70
2017-06-18T11:12:51.331Z,2.10
2017-06-18T11:15:23.548Z,1.83
2017-06-18T11:18:12.179Z,1.70
2017-06-18T11:20:57.690Z,2.00
2017-06-18T11:23:27.524Z,2.23
2017-06-18T11:25:55.867Z,1.50
2017-06-18T11:31:25.774Z,1.70
2017-06-18T11:33:54.176Z,1.57
2017-06-18T11:39:23.569Z,1.73
2017-06-18T11:41:58.538Z,2.90
2017-06-18T11:44:26.941Z,2.80
2017-06-18T11:46:55.289Z,2.53
2017-06-18T11:49:42.489Z,2.47
2017-06-18T11:55:04.966Z,2.33
2017-06-18T11:57:34.753Z,2.00
2017-06-18T12:00:03.170Z,2.47
2017-06-18T12:02:31.535Z,2.60
2017-06-18T12:05:00.038Z,2.50
2017-06-18T12:10:39.186Z,2.70
2017-06-18T12:13:15.233Z,2.80
2017-06-18T12:15:43.629Z,2.43
2017-06-18T12:18:26.366Z,3.47
2017-06-18T12:20:54.799Z,2.90
2017-06-18T12:23:23.145Z,2.33
2017-06-18T12:25:51.577Z,2.30
2017-06-18T12:28:25.607Z,2.40
2017-06-18T12:31:11.246Z,2.40
2017-06-18T12:33:39.865Z,2.20
2017-06-18T12:36:17.636Z,1.90
2017-06-18T12:38:46.034Z,2.57
2017-06-18T12:41:14.364Z,2.30
2017-06-18T12:43:42.766Z,1.80
2017-06-18T12:46:11.224Z,2.60
2017-06-18T12:48:39.619Z,2.47
2017-06-18T12:51:08.729Z,2.17
2017-06-18T12:53:56.072Z,1.97
2017-06-18T12:56:24.461Z,2.37
2017-06-18T12:58:53.602Z,1.83
2017-06-18T13:01:22.019Z,1.50
2017-06-18T13:03:50.416Z,2.00
2017-06-18T13:06:22.624Z,1.93
2017-06-18T13:08:50.936Z,1.80
2017-06-18T13:11:35.580Z,2.33
2017-06-18T13:14:03.961Z,1.90
2017-06-18T13:16:51.671Z,1.60
2017-06-18T13:19:20.084Z,1.70
2017-06-18T13:21:52.277Z,1.57
2017-06-18T13:24:26.579Z,2.17
2017-06-18T13:27:04.620Z,1.60
2017-06-18T13:29:52.350Z,1.67
2017-06-18T13:32:20.741Z,1.47
2017-06-18T13:34:52.705Z,2.00
2017-06-18T13:37:21.207Z,1.73
2017-06-18T13:39:53.606Z,1.50
2017-06-18T13:42:22.004Z,1.63
2017-06-18T13:44:56.864Z,1.30
2017-06-18T13:47:26.964Z,1.50
2017-06-18T13:50:05.468Z,1.20
2017-06-18T13:52:53.494Z,1.10
2017-06-18T13:55:21.855Z,1.90
2017-06-18T13:57:50.240Z,1.47
2017-06-18T14:00:18.732Z,2.03
2017-06-18T14:02:47.162Z,1.80
2017-06-18T14:05:15.777Z,1.77
2017-06-18T14:07:44.165Z,2.20
2017-06-18T14:10:12.557Z,1.80
2017-06-18T14:12:47.912Z,2.07
2017-06-18T14:15:16.949Z,1.57
2017-06-18T14:17:46.101Z,1.80
2017-06-18T14:20:24.457Z,1.70
2017-06-18T14:22:52.797Z,1.70
2017-06-18T14:28:33.443Z,1.50
2017-06-18T14:31:02.523Z,1.30
2017-06-18T14:33:30.900Z,0.90
2017-06-18T14:36:06.763Z,1.20
2017-06-18T14:38:35.072Z,1.30
2017-06-18T14:44:03.273Z,1.57
2017-06-18T14:46:32.656Z,1.67
2017-06-18T14:49:01.014Z,1.47
2017-06-18T14:51:29.416Z,1.43
2017-06-18T14:54:05.509Z,2.97
2017-06-18T14:56:34.121Z,1.37
2017-06-18T14:59:21.632Z,1.50
2017-06-18T15:01:50.127Z,2.50
2017-06-18T15:04:24.677Z,1.60
2017-06-18T15:09:54.204Z,1.80
2017-06-18T15:12:22.552Z,1.60
2017-06-18T15:14:56.782Z,2.07
2017-06-18T15:17:25.174Z,1.83
2017-06-18T15:20:00.132Z,1.93
2017-06-18T15:22:28.520Z,1.60
2017-06-18T15:24:56.918Z,1.40
2017-06-18T15:27:25.333Z,1.60
2017-06-18T15:29:53.734Z,1.70
2017-06-18T15:32:25.225Z,1.30
2017-06-18T15:38:01.088Z,1.47
2017-06-18T15:40:29.436Z,1.90
2017-06-18T15:42:57.834Z,1.73
2017-06-18T15:48:33.047Z,1.10
2017-06-18T15:51:07.720Z,1.47
2017-06-18T15:53:53.335Z,1.17
2017-06-18T15:56:21.738Z,0.93
2017-06-18T15:58:50.080Z,1.00
2017-06-18T16:01:18.526Z,1.10
2017-06-18T16:03:46.913Z,1.40
2017-06-18T16:06:15.287Z,1.50
2017-06-18T16:08:43.652Z,1.60
2017-06-18T16:11:12.094Z,1.60
2017-06-18T16:13:40.482Z,1.83
2017-06-18T16:16:21.726Z,1.30
2017-06-18T16:21:45.000Z,1.60
2017-06-18T16:24:17.212Z,1.20
2017-06-18T16:26:46.004Z,1.33
2017-06-18T16:29:14.404Z,1.83
2017-06-18T16:31:42.861Z,1.47
2017-06-18T16:34:24.475Z,1.03
2017-06-18T16:42:53.545Z,1.10
2017-06-18T16:45:24.458Z,0.90
2017-06-18T16:47:56.568Z,1.30
2017-06-18T16:50:31.769Z,1.00
2017-06-18T16:53:23.691Z,1.10
2017-06-18T16:55:52.033Z,1.00
2017-06-18T16:58:21.184Z,0.90
2017-06-18T17:00:51.672Z,0.93
2017-06-18T17:03:20.077Z,1.10
2017-06-18T17:05:55.004Z,1.33
2017-06-18T17:08:24.111Z,1.03
2017-06-18T17:10:52.527Z,1.20
2017-06-18T17:13:20.936Z,1.30
2017-06-18T17:15:49.313Z,1.60
2017-06-18T17:18:17.696Z,1.27
2017-06-18T17:20:48.959Z,1.10
2017-06-18T17:23:23.022Z,1.37
2017-06-18T17:25:52.293Z,1.70
2017-06-18T17:28:21.100Z,1.13
2017-06-18T17:30:49.468Z,1.63
2017-06-18T17:33:17.853Z,1.37
2017-06-18T17:35:52.328Z,1.10
2017-06-18T17:38:20.771Z,1.47
2017-06-18T17:40:49.182Z,1.23
2017-06-18T17:43:17.587Z,1.17
2017-06-18T17:45:46.044Z,1.40
2017-06-18T17:48:24.047Z,1.43
2017-06-18T17:50:52.456Z,1.30
2017-06-18T17:53:21.590Z,1.77
2017-06-18T17:55:49.920Z,1.50
2017-06-18T17:58:18.328Z,1.50
2017-06-18T18:00:46.707Z,1.80
2017-06-18T18:03:15.121Z,1.50
2017-06-18T18:05:43.565Z,1.70
2017-06-18T18:08:15.283Z,1.40
2017-06-18T18:10:44.419Z,1.67
2017-06-18T18:16:12.994Z,1.37
2017-06-18T18:18:58.861Z,1.37
2017-06-18T18:24:21.993Z,1.23
2017-06-18T18:26:50.375Z,1.50
2017-06-18T18:29:18.796Z,1.67
2017-06-18T18:31:47.231Z,1.73
2017-06-18T18:34:15.598Z,1.60
2017-06-18T18:36:44.015Z,1.77
2017-06-18T18:39:12.482Z,2.17
2017-06-18T18:41:40.813Z,1.73
2017-06-18T18:44:09.195Z,1.40
2017-06-18T18:49:51.255Z,2.07
2017-06-18T18:52:19.698Z,1.80
2017-06-18T18:54:48.036Z,1.70
2017-06-18T18:57:24.376Z,2.27
2017-06-18T18:59:52.708Z,2.50
2017-06-18T19:05:43.558Z,1.77
2017-06-18T19:08:24.573Z,2.50
2017-06-18T19:11:15.026Z,2.27
2017-06-18T19:16:44.869Z,2.80
2017-06-18T19:19:16.311Z,2.30
2017-06-18T19:21:44.885Z,2.20
2017-06-18T19:24:13.337Z,2.90
2017-06-18T19:26:41.759Z,3.00
2017-06-18T19:29:10.186Z,2.80
2017-06-18T19:31:38.596Z,3.17
2017-06-18T19:34:08.894Z,3.10
2017-06-18T19:36:57.011Z,3.20
2017-06-18T19:39:25.338Z,2.80
2017-06-18T19:41:53.724Z,3.20
2017-06-18T19:44:22.133Z,3.70
2017-06-18T19:46:50.532Z,3.50
2017-06-18T19:49:19.256Z,3.67
2017-06-18T19:51:47.714Z,3.47
2017-06-18T19:54:16.090Z,3.47
2017-06-18T19:56:45.274Z,2.40
2017-06-18T19:59:13.972Z,3.03
2017-06-18T20:01:43.706Z,3.37
2017-06-18T20:04:12.501Z,3.40
2017-06-18T20:06:40.894Z,3.83
2017-06-18T20:09:09.280Z,4.10
2017-06-18T20:11:46.400Z,3.40
2017-06-18T20:14:14.800Z,3.57
2017-06-18T20:16:43.333Z,4.03
2017-06-18T20:19:12.347Z,4.87
2017-06-18T20:21:47.896Z,4.40
2017-06-18T20:27:16.452Z,5.93
2017-06-18T20:30:01.201Z,6.87
2017-06-18T20:38:41.827Z,4.60
2017-06-18T20:47:19.784Z,5.43
2017-06-18T20:50:08.757Z,5.80
2017-06-18T20:55:40.362Z,6.13
2017-06-18T21:10:10.869Z,7.10
2017-06-18T21:18:52.591Z,7.40
2017-06-18T21:33:30.184Z,7.30
2017-06-18T21:36:13.862Z,7.23
2017-06-18T21:41:53.066Z,7.80
2017-06-18T21:44:45.166Z,7.03
2017-06-18T21:47:22.323Z,7.87
2017-06-18T21:50:01.188Z,7.57
2017-06-18T21:52:31.056Z,9.57
2017-06-18T21:55:13.397Z,10.13
2017-06-18T22:03:42.723Z,8.93
2017-06-18T22:09:12.532Z,10.13
2017-06-18T22:12:00.177Z,9.13
2017-06-18T22:18:07.243Z,9.17
2017-06-18T22:23:42.698Z,8.80
2017-06-18T22:29:31.978Z,9.83
2017-06-18T22:32:17.380Z,11.00
2017-06-18T22:38:04.589Z,10.23
2017-06-18T22:40:53.464Z,10.30
2017-06-18T22:43:21.931Z,8.50
2017-06-18T22:49:10.634Z,10.07
2017-06-18T22:57:25.537Z,9.50
2017-06-18T23:00:10.561Z,10.53
2017-06-18T23:02:44.760Z,9.70
2017-06-18T23:05:29.811Z,12.27
2017-06-18T23:08:20.909Z,12.13
2017-06-18T23:13:57.352Z,10.70
2017-06-18T23:16:44.898Z,11.00
2017-06-18T23:19:29.939Z,10.83
2017-06-18T23:22:05.127Z,10.13
2017-06-18T23:30:29.197Z,11.23
2017-06-18T23:32:59.207Z,11.40
2017-06-18T23:38:35.205Z,12.93
2017-06-18T23:41:22.686Z,12.40
2017-06-18T23:43:58.170Z,12.47
2017-06-18T23:52:47.944Z,14.90
2017-06-18T23:55:22.746Z,12.10
2017-06-18T23:57:57.298Z,13.40
